Time;durP1;ratioP1;P1;durP2;ratioP2;P2;SDS_P1;SDS_P2;PMS_P1;PMS_P2;Temp;Humidity;BMP_temperature;BMP_pressure;BME280_temperature;BME280_humidity;BME280_pressure;Samples;Min_cycle;Max_cycle;Signal;HPM_P1;HPM_P2
2022/08/06 00:02:10;;;;;;;5.32;2.20;;;;;;;14.82;70.63;100772.53;5045357;28;20040;-86
2022/08/06 00:04:35;;;;;;;6.80;2.13;;;;;;;14.92;69.74;100777.28;5046542;28;20115;-87
2022/08/06 00:07:00;;;;;;;5.72;2.25;;;;;;;14.87;70.17;100771.78;5045517;28;20033;-87
2022/08/06 00:09:30;;;;;;;4.10;1.73;;;;;;;14.85;69.86;100771.22;5044842;28;20065;-80
2022/08/06 00:11:57;;;;;;;12.65;2.78;;;;;;;14.86;70.40;100781.09;5044116;28;20415;-80
2022/08/06 00:14:23;;;;;;;6.53;2.47;;;;;;;14.71;70.70;100771.66;5045815;28;20060;-86
2022/08/06 00:16:48;;;;;;;4.43;2.15;;;;;;;14.68;71.12;100774.97;5046609;28;20120;-86
2022/08/06 00:19:13;;;;;;;5.95;2.20;;;;;;;14.73;70.61;100777.72;5044781;28;20103;-88
2022/08/06 00:21:38;;;;;;;6.50;2.22;;;;;;;14.84;70.37;100781.38;5046761;28;20110;-88
2022/08/06 00:24:04;;;;;;;3.17;1.63;;;;;;;15.05;69.89;100782.25;5047700;28;20384;-87
2022/08/06 00:26:29;;;;;;;5.68;2.10;;;;;;;15.16;69.16;100790.53;5046653;28;20059;-87
2022/08/06 00:28:55;;;;;;;4.65;2.45;;;;;;;15.04;68.83;100779.78;5046671;28;20021;-86
2022/08/06 00:31:21;;;;;;;3.90;1.75;;;;;;;15.02;69.25;100788.28;5047067;28;20487;-86
2022/08/06 00:33:46;;;;;;;6.18;3.17;;;;;;;14.98;69.83;100786.34;5046616;28;20033;-87
2022/08/06 00:36:11;;;;;;;4.13;1.92;;;;;;;14.86;70.01;100786.59;5047410;28;20021;-87
2022/08/06 00:38:36;;;;;;;6.25;2.05;;;;;;;14.85;70.18;100785.75;5046416;28;20661;-82
2022/08/06 00:41:02;;;;;;;4.25;2.03;;;;;;;14.82;70.00;100781.63;5044679;28;20037;-80
2022/08/06 00:43:28;;;;;;;3.83;1.70;;;;;;;14.71;71.00;100788.13;5044463;28;20068;-82
2022/08/06 00:45:53;;;;;;;3.83;2.00;;;;;;;14.49;70.49;100783.66;5046836;28;20060;-86
2022/08/06 00:48:19;;;;;;;5.10;1.77;;;;;;;14.31;71.91;100799.47;5045447;28;20037;-86
2022/08/06 00:50:44;;;;;;;4.25;2.30;;;;;;;13.93;73.14;100799.50;5044965;28;20036;-81
2022/08/06 00:53:09;;;;;;;8.10;3.15;;;;;;;13.90;72.93;100797.25;5044767;28;20075;-80
2022/08/06 00:55:34;;;;;;;5.28;2.63;;;;;;;13.82;73.30;100795.81;5046035;28;20074;-85
2022/08/06 00:58:00;;;;;;;3.85;1.85;;;;;;;13.55;73.75;100799.41;5046067;28;20449;-85
2022/08/06 01:00:25;;;;;;;5.25;2.58;;;;;;;13.39;74.51;100806.63;5046464;28;20386;-85
2022/08/06 01:02:51;;;;;;;4.72;2.35;;;;;;;13.48;74.57;100796.03;5046450;28;20036;-85
2022/08/06 01:05:16;;;;;;;8.40;2.45;;;;;;;13.51;74.19;100807.31;5044845;28;20352;-81
2022/08/06 01:07:42;;;;;;;9.55;2.55;;;;;;;13.61;74.13;100803.88;5044330;28;20029;-80
2022/08/06 01:10:08;;;;;;;3.05;1.73;;;;;;;13.86;73.31;100799.69;5046293;28;20327;-86
2022/08/06 01:12:33;;;;;;;4.97;2.58;;;;;;;13.91;73.19;100806.31;5050805;28;20831;-86
2022/08/06 01:14:59;;;;;;;6.03;2.70;;;;;;;13.51;74.38;100807.31;5049531;28;20045;-80
2022/08/06 01:17:38;;;;;;;8.60;3.08;;;;;;;13.29;75.23;100810.09;5047727;28;20043;-81
2022/08/06 01:20:38;;;;;;;7.38;2.88;;;;;;;13.25;74.88;100803.47;5047440;28;20479;-85
2022/08/06 01:23:11;;;;;;;4.20;1.92;;;;;;;13.33;74.59;100810.41;5040840;28;20045;-85
2022/08/06 01:25:52;;;;;;;4.47;2.55;;;;;;;13.34;76.14;100807.44;5048587;28;20043;-81
2022/08/06 01:28:45;;;;;;;3.95;1.85;;;;;;;13.45;74.61;100816.56;5047740;28;20103;-80
2022/08/06 01:31:14;;;;;;;4.32;2.58;;;;;;;13.35;75.17;100821.94;5050006;28;20025;-88
2022/08/06 01:33:46;;;;;;;25.52;4.18;;;;;;;13.39;74.84;100812.94;5050271;28;20068;-81
2022/08/06 01:36:19;;;;;;;5.10;2.65;;;;;;;13.29;75.36;100821.03;5047648;28;20563;-80
2022/08/06 01:38:50;;;;;;;5.03;2.40;;;;;;;13.15;75.74;100820.63;5047516;28;20029;-85
2022/08/06 01:41:39;;;;;;;4.50;2.10;;;;;;;13.04;76.21;100823.22;5049146;28;20025;-85
2022/08/06 01:44:11;;;;;;;5.18;2.08;;;;;;;12.90;76.83;100831.00;5049518;28;20132;-80
2022/08/06 01:46:40;;;;;;;6.40;3.40;;;;;;;12.82;76.82;100824.06;5047251;28;20047;-80
2022/08/06 01:49:09;;;;;;;5.47;2.20;;;;;;;12.89;76.62;100836.75;5046197;28;20037;-81
2022/08/06 01:51:37;;;;;;;9.27;3.53;;;;;;;13.12;76.38;100826.63;5047514;28;20029;-81
2022/08/06 01:54:05;;;;;;;7.68;2.72;;;;;;;13.19;76.40;100830.81;5047485;28;20041;-80
2022/08/06 01:56:35;;;;;;;3.67;2.10;;;;;;;13.00;76.29;100826.72;5047356;28;20032;-80
2022/08/06 01:59:03;;;;;;;9.70;2.10;;;;;;;13.12;76.31;100829.38;5047133;28;20040;-80
2022/08/06 02:01:30;;;;;;;4.70;2.38;;;;;;;13.34;75.85;100834.81;5048756;28;20510;-80
2022/08/06 02:03:57;;;;;;;8.98;1.88;;;;;;;13.47;74.65;100830.81;5048084;28;20465;-81
2022/08/06 02:06:30;;;;;;;4.05;2.03;;;;;;;13.26;75.38;100835.28;5047375;28;20047;-80
2022/08/06 02:08:58;;;;;;;4.22;2.22;;;;;;;13.30;75.22;100837.22;5047776;28;20039;-86
2022/08/06 02:11:23;;;;;;;3.88;1.85;;;;;;;13.11;75.62;100838.66;5050594;28;20040;-86
2022/08/06 02:13:52;;;;;;;8.85;2.58;;;;;;;12.88;76.57;100835.91;5049284;28;20484;-86
2022/08/06 02:16:18;;;;;;;8.13;2.88;;;;;;;12.94;76.94;100839.53;5049918;28;20029;-88
2022/08/06 02:18:46;;;;;;;6.95;2.30;;;;;;;12.84;77.33;100835.59;5047908;28;20032;-88
2022/08/06 02:21:18;;;;;;;7.45;2.40;;;;;;;12.68;77.47;100840.03;5048507;28;20035;-86
2022/08/06 02:23:44;;;;;;;9.75;3.00;;;;;;;12.70;77.85;100840.63;5048561;28;20037;-86
2022/08/06 02:26:12;;;;;;;8.23;3.17;;;;;;;12.65;78.18;100847.94;5047951;28;20044;-80
2022/08/06 02:28:41;;;;;;;5.88;2.83;;;;;;;12.66;77.91;100847.66;5046155;28;20039;-80
2022/08/06 02:31:06;;;;;;;6.80;2.95;;;;;;;12.78;77.60;100849.44;5047888;28;20121;-84
2022/08/06 02:33:32;;;;;;;8.20;2.63;;;;;;;12.92;77.35;100855.38;5048406;28;20092;-84
2022/08/06 02:36:04;;;;;;;6.15;2.70;;;;;;;13.11;76.69;100847.69;5047060;28;20033;-80
2022/08/06 02:39:00;;;;;;;7.20;3.40;;;;;;;13.12;76.12;100859.47;5045979;28;20311;-80
2022/08/06 02:42:00;;;;;;;5.32;1.98;;;;;;;13.13;76.05;100858.38;5043908;28;20036;-81
2022/08/06 02:45:01;;;;;;;5.97;2.30;;;;;;;13.19;76.10;100862.84;5046873;28;20017;-86
2022/08/06 02:47:52;;;;;;;5.95;2.22;;;;;;;13.29;76.07;100864.88;5048145;28;20064;-86
2022/08/06 02:50:20;;;;;;;6.85;2.88;;;;;;;13.22;75.85;100869.72;5047912;28;20118;-88
2022/08/06 02:52:54;;;;;;;5.80;2.13;;;;;;;13.19;76.03;100868.31;5048483;28;20143;-89
2022/08/06 02:55:23;;;;;;;6.88;3.13;;;;;;;13.07;76.08;100863.81;5047106;28;20079;-80
2022/08/06 02:58:04;;;;;;;8.50;2.33;;;;;;;12.81;76.56;100855.25;5045976;28;20029;-80
2022/08/06 03:00:32;;;;;;;5.20;2.97;;;;;;;12.70;76.97;100862.50;5045827;28;20377;-81
2022/08/06 03:03:01;;;;;;;6.30;2.60;;;;;;;12.59;77.26;100866.19;5045943;28;20040;-81
2022/08/06 03:05:28;;;;;;;19.98;4.75;;;;;;;12.52;77.97;100865.50;5047230;28;20037;-86
2022/08/06 03:07:56;;;;;;;10.82;2.95;;;;;;;12.47;77.91;100869.81;5047952;28;20472;-86
2022/08/06 03:10:24;;;;;;;5.10;2.55;;;;;;;12.56;77.76;100866.66;5047539;28;20071;-86
2022/08/06 03:12:52;;;;;;;5.40;2.78;;;;;;;12.63;78.17;100867.31;5046283;28;20037;-86
2022/08/06 03:15:18;;;;;;;9.25;2.92;;;;;;;12.57;77.94;100868.34;5048222;28;20515;-87
2022/08/06 03:17:45;;;;;;;7.50;3.53;;;;;;;12.60;78.17;100868.66;5047728;28;20032;-86
2022/08/06 03:20:12;;;;;;;8.65;2.80;;;;;;;12.79;76.77;100881.22;5045906;28;20072;-81
2022/08/06 03:22:40;;;;;;;5.63;2.65;;;;;;;12.61;77.67;100875.78;5045509;28;20037;-80
2022/08/06 03:25:07;;;;;;;5.53;2.38;;;;;;;12.34;78.05;100881.13;5046393;28;20079;-86
2022/08/06 03:27:35;;;;;;;4.43;2.53;;;;;;;12.40;78.86;100884.75;5048039;28;20059;-86
2022/08/06 03:30:01;;;;;;;7.82;3.08;;;;;;;12.52;78.25;100888.22;5047216;28;20040;-86
2022/08/06 03:32:27;;;;;;;12.38;3.08;;;;;;;12.60;77.52;100892.44;5047770;28;20028;-86
2022/08/06 03:34:53;;;;;;;11.38;3.50;;;;;;;12.68;77.12;100886.53;5047493;28;20033;-86
2022/08/06 03:37:20;;;;;;;5.60;2.53;;;;;;;12.42;77.83;100894.38;5047219;28;20041;-86
2022/08/06 03:39:47;;;;;;;7.15;3.33;;;;;;;12.26;78.27;100891.38;5046904;28;20087;-80
2022/08/06 03:42:13;;;;;;;6.68;3.22;;;;;;;12.27;78.17;100894.94;5044877;28;20430;-80
2022/08/06 03:44:38;;;;;;;6.72;3.17;;;;;;;12.33;78.09;100890.38;5045380;28;20087;-80
2022/08/06 03:47:09;;;;;;;5.47;2.63;;;;;;;12.33;78.63;100893.13;5044883;28;20187;-79
2022/08/06 03:49:42;;;;;;;9.25;4.07;;;;;;;12.33;78.58;100898.59;5044406;28;20511;-80
2022/08/06 03:52:11;;;;;;;7.68;3.42;;;;;;;12.52;78.13;100903.81;5045267;28;20029;-80
2022/08/06 03:54:42;;;;;;;10.68;3.78;;;;;;;12.58;77.62;100902.81;5044990;28;20048;-81
2022/08/06 03:57:19;;;;;;;5.10;2.70;;;;;;;12.62;78.03;100903.97;5045230;28;20036;-80
2022/08/06 03:59:46;;;;;;;9.75;3.05;;;;;;;12.41;78.06;100906.38;5044892;28;20048;-80
2022/08/06 04:02:14;;;;;;;7.90;3.67;;;;;;;12.45;78.57;100901.22;5045518;28;20036;-80
2022/08/06 04:04:41;;;;;;;8.95;2.75;;;;;;;12.72;77.64;100903.28;5045622;28;20029;-84
2022/08/06 04:07:06;;;;;;;6.70;3.28;;;;;;;12.77;77.28;100899.78;5046633;28;20029;-84
2022/08/06 04:09:32;;;;;;;8.55;3.60;;;;;;;12.79;76.71;100903.13;5046747;28;20017;-89
2022/08/06 04:11:59;;;;;;;6.53;3.15;;;;;;;12.88;77.13;100907.06;5047837;28;20056;-88
2022/08/06 04:14:25;;;;;;;4.72;2.55;;;;;;;12.84;76.61;100908.66;5046891;28;20049;-78
2022/08/06 04:16:52;;;;;;;6.85;3.00;;;;;;;12.66;76.89;100918.81;5045162;28;20110;-79
2022/08/06 04:19:19;;;;;;;6.60;3.63;;;;;;;12.77;77.34;100921.69;5043979;28;20116;-86
2022/08/06 04:21:45;;;;;;;7.57;3.05;;;;;;;12.70;77.15;100917.22;5046631;28;20480;-86
2022/08/06 04:24:11;;;;;;;8.05;3.03;;;;;;;12.45;77.81;100918.47;5047503;28;20028;-84
2022/08/06 04:26:38;;;;;;;8.73;3.70;;;;;;;12.29;78.59;100927.50;5046768;28;20116;-84
2022/08/06 04:29:06;;;;;;;10.15;3.30;;;;;;;12.32;78.87;100927.03;5046339;28;20040;-84
2022/08/06 04:31:33;;;;;;;6.40;3.08;;;;;;;12.36;78.70;100930.91;5046460;28;20083;-84
2022/08/06 04:34:00;;;;;;;7.70;3.22;;;;;;;12.32;78.83;100935.22;5046283;28;20040;-84
2022/08/06 04:36:27;;;;;;;7.47;3.47;;;;;;;12.29;79.22;100932.97;5046261;28;20037;-84
2022/08/06 04:38:52;;;;;;;6.20;3.35;;;;;;;12.12;79.62;100933.81;5045921;28;20041;-84
2022/08/06 04:41:18;;;;;;;5.60;3.42;;;;;;;12.09;79.94;100932.34;5045279;28;20500;-80
2022/08/06 04:43:45;;;;;;;8.82;3.28;;;;;;;12.46;78.99;100933.81;5044851;28;20098;-80
2022/08/06 04:46:11;;;;;;;7.07;3.40;;;;;;;12.83;77.76;100937.91;5049063;28;20041;-86
2022/08/06 04:48:36;;;;;;;5.47;2.72;;;;;;;13.16;76.18;100937.28;5041172;28;20067;-86
2022/08/06 04:51:04;;;;;;;5.00;2.65;;;;;;;13.25;76.40;100926.69;5050765;28;20037;-86
2022/08/06 04:53:36;;;;;;;7.38;3.25;;;;;;;13.36;75.63;100939.47;5050889;28;20029;-86
2022/08/06 04:56:01;;;;;;;12.30;3.97;;;;;;;13.40;75.58;100926.88;5051462;28;20029;-86
2022/08/06 04:58:27;;;;;;;7.28;3.65;;;;;;;13.55;74.14;100936.41;5050737;28;20033;-86
2022/08/06 05:00:52;;;;;;;6.30;3.10;;;;;;;13.58;74.01;100938.66;5050886;28;20040;-81
2022/08/06 05:03:17;;;;;;;9.68;3.53;;;;;;;13.72;72.88;100941.81;5048837;28;20052;-81
2022/08/06 05:05:50;;;;;;;7.07;3.50;;;;;;;13.83;72.67;100948.22;5051520;28;20059;-86
2022/08/06 05:08:17;;;;;;;7.80;4.82;;;;;;;13.99;72.07;100948.41;5051430;28;20025;-86
2022/08/06 05:11:10;;;;;;;11.30;3.63;;;;;;;14.08;72.11;100949.56;5048639;28;20025;-81
2022/08/06 05:13:39;;;;;;;10.63;4.05;;;;;;;14.40;70.82;100953.41;5048268;28;20057;-81
2022/08/06 05:16:09;;;;;;;7.75;3.10;;;;;;;14.48;70.34;100952.91;5048098;28;20132;-79
2022/08/06 05:18:40;;;;;;;6.95;3.30;;;;;;;14.56;70.25;100954.34;5041493;28;20507;-80
2022/08/06 05:21:08;;;;;;;7.15;2.67;;;;;;;14.56;69.75;100954.34;5050407;28;20056;-89
2022/08/06 05:23:42;;;;;;;7.32;3.55;;;;;;;14.48;70.32;100957.59;5047502;28;20060;-90
2022/08/06 05:26:07;;;;;;;8.02;3.25;;;;;;;14.41;70.71;100946.84;5047088;28;20030;-82
2022/08/06 05:28:33;;;;;;;5.80;2.60;;;;;;;14.51;70.14;100957.06;5047846;28;20590;-82
2022/08/06 05:30:58;;;;;;;11.50;2.53;;;;;;;14.60;70.56;100965.66;5047716;28;20082;-85
2022/08/06 05:33:30;;;;;;;7.38;3.00;;;;;;;14.62;71.26;100962.63;5049209;28;20029;-85
2022/08/06 05:35:57;;;;;;;8.63;3.05;;;;;;;14.85;69.20;100960.63;5048944;28;20032;-84
2022/08/06 05:38:23;;;;;;;7.72;2.70;;;;;;;14.83;69.64;100966.38;5046920;28;20369;-84
2022/08/06 05:40:49;;;;;;;8.05;3.10;;;;;;;14.84;68.44;100958.97;5047806;28;20480;-80
2022/08/06 05:43:15;;;;;;;7.97;4.13;;;;;;;14.95;68.04;100966.16;5046760;28;20037;-80
2022/08/06 05:45:43;;;;;;;6.55;2.53;;;;;;;14.89;68.05;100973.56;5047891;28;20659;-82
2022/08/06 05:48:11;;;;;;;9.65;3.08;;;;;;;14.87;68.34;100972.19;5046575;28;20037;-82
2022/08/06 05:50:42;;;;;;;8.50;3.10;;;;;;;14.97;68.26;100974.16;5029573;28;20136;-90
2022/08/06 05:53:11;;;;;;;4.93;2.78;;;;;;;15.20;67.65;100986.66;5031444;28;20055;-90
2022/08/06 05:55:48;;;;;;;8.18;3.05;;;;;;;15.24;67.37;100976.78;5049174;28;20120;-86
2022/08/06 05:58:19;;;;;;;6.38;2.30;;;;;;;15.36;67.46;100983.97;5046517;28;20127;-87
2022/08/06 06:00:45;;;;;;;14.35;4.13;;;;;;;15.26;68.23;100982.00;5046436;28;20751;-80
2022/08/06 06:03:16;;;;;;;7.72;2.50;;;;;;;15.24;67.60;100984.19;5047519;28;20032;-82
2022/08/06 06:05:43;;;;;;;8.82;3.28;;;;;;;15.34;67.82;100981.50;5048467;28;20032;-82
2022/08/06 06:08:09;;;;;;;13.50;4.00;;;;;;;15.50;67.29;100981.56;5047860;28;20095;-83
2022/08/06 06:10:35;;;;;;;8.82;3.67;;;;;;;15.59;67.54;100984.63;5045303;28;20036;-83
2022/08/06 06:13:02;;;;;;;6.40;2.90;;;;;;;15.55;67.12;100983.50;5047818;28;20037;-83
2022/08/06 06:15:28;;;;;;;5.60;2.78;;;;;;;15.57;66.51;100989.56;5047261;28;20324;-80
2022/08/06 06:18:05;;;;;;;18.95;4.32;;;;;;;15.61;66.92;100987.94;5046226;28;20482;-80
2022/08/06 06:20:52;;;;;;;5.82;2.60;;;;;;;15.51;66.88;100984.06;5046067;28;20124;-81
2022/08/06 06:23:24;;;;;;;5.40;2.58;;;;;;;15.54;67.12;100988.16;5046809;28;20051;-81
2022/08/06 06:26:10;;;;;;;8.80;2.35;;;;;;;15.70;67.27;100986.31;5047986;28;20037;-86
2022/08/06 06:28:49;;;;;;;10.20;2.90;;;;;;;15.66;66.33;100993.47;5031790;28;20671;-87
2022/08/06 06:31:38;;;;;;;7.75;3.08;;;;;;;15.49;66.85;101000.00;5047393;28;20152;-81
2022/08/06 06:34:25;;;;;;;7.75;3.13;;;;;;;15.83;66.89;100997.91;5046747;28;20029;-82
2022/08/06 06:37:03;;;;;;;9.80;3.58;;;;;;;15.61;67.49;100998.94;5046500;28;20635;-81
2022/08/06 06:39:54;;;;;;;7.85;3.70;;;;;;;15.39;68.76;100998.03;5045895;28;20037;-81
2022/08/06 06:42:27;;;;;;;6.18;2.63;;;;;;;15.76;67.49;100995.41;5046400;28;20462;-81
2022/08/06 06:45:06;;;;;;;7.18;3.08;;;;;;;15.80;67.36;101001.19;5046687;28;20044;-86
2022/08/06 06:47:59;;;;;;;8.48;2.72;;;;;;;15.74;67.70;101006.66;5046456;28;20064;-86
2022/08/06 06:50:32;;;;;;;5.85;2.75;;;;;;;15.87;67.65;101007.25;5045739;28;20123;-81
2022/08/06 06:52:57;;;;;;;6.90;3.13;;;;;;;15.96;67.01;101002.06;5046289;28;20563;-80
2022/08/06 06:55:32;;;;;;;5.90;2.83;;;;;;;16.07;67.24;101002.94;5047708;28;20147;-87
2022/08/06 06:58:32;;;;;;;19.75;3.50;;;;;;;16.12;67.25;101007.63;5047871;28;20029;-87
2022/08/06 07:00:58;;;;;;;7.15;2.85;;;;;;;16.24;67.65;101010.97;5046690;28;20041;-85
2022/08/06 07:03:27;;;;;;;5.35;2.00;;;;;;;16.10;66.99;101019.75;5047210;28;20047;-83
2022/08/06 07:05:54;;;;;;;4.70;2.30;;;;;;;16.22;66.57;101018.66;5046669;28;20032;-81
2022/08/06 07:08:21;;;;;;;9.88;3.03;;;;;;;16.43;66.13;101015.94;5045173;28;20032;-79
2022/08/06 07:10:48;;;;;;;5.05;1.63;;;;;;;16.59;65.04;101024.19;5046755;28;20218;-84
2022/08/06 07:13:15;;;;;;;9.50;3.50;;;;;;;16.43;65.75;101025.00;5047269;28;20044;-85
2022/08/06 07:15:42;;;;;;;4.85;1.85;;;;;;;16.33;66.03;101030.50;5046448;28;20033;-79
2022/08/06 07:18:09;;;;;;;7.65;2.42;;;;;;;16.58;65.41;101037.13;5045129;28;20028;-79
2022/08/06 07:20:35;;;;;;;4.25;1.85;;;;;;;16.68;64.75;101037.13;5042389;28;20114;-78
2022/08/06 07:23:03;;;;;;;6.05;2.30;;;;;;;16.69;63.66;101038.81;5045335;28;20063;-78
2022/08/06 07:25:29;;;;;;;3.53;1.13;;;;;;;16.65;65.20;101045.13;5045215;28;20033;-79
2022/08/06 07:27:54;;;;;;;4.28;1.40;;;;;;;16.69;64.09;101043.47;5045480;28;20472;-79
2022/08/06 07:30:21;;;;;;;3.33;1.15;;;;;;;16.65;64.04;101034.94;5045614;28;20064;-86
2022/08/06 07:32:48;;;;;;;2.95;1.10;;;;;;;16.84;63.22;101034.38;5047244;28;20032;-86
2022/08/06 07:35:15;;;;;;;6.13;0.93;;;;;;;16.95;62.61;101039.88;5046563;28;20028;-79
2022/08/06 07:37:48;;;;;;;6.75;1.33;;;;;;;17.03;61.86;101036.56;5045719;28;20118;-79
2022/08/06 07:40:25;;;;;;;4.63;1.20;;;;;;;17.08;61.07;101044.84;5044461;28;20068;-78
2022/08/06 07:42:55;;;;;;;3.33;1.08;;;;;;;16.97;62.08;101040.41;5045304;28;20677;-78
2022/08/06 07:45:23;;;;;;;4.47;0.80;;;;;;;17.03;61.44;101036.56;5045359;28;20040;-78
2022/08/06 07:47:51;;;;;;;0.70;0.50;;;;;;;17.15;60.68;101044.56;5044640;28;20443;-79
2022/08/06 07:50:18;;;;;;;2.88;0.73;;;;;;;17.02;60.23;101037.69;5045081;28;20075;-84
2022/08/06 07:52:44;;;;;;;6.22;0.80;;;;;;;17.02;59.65;101045.94;5047253;28;20045;-85
2022/08/06 07:55:12;;;;;;;11.45;0.98;;;;;;;17.24;59.09;101042.91;5046788;28;20033;-78
2022/08/06 07:57:39;;;;;;;4.90;0.60;;;;;;;17.28;59.94;101048.69;5045142;28;20487;-78
2022/08/06 08:00:05;;;;;;;4.93;0.70;;;;;;;17.33;58.79;101048.66;5044360;28;20033;-80
2022/08/06 08:02:31;;;;;;;2.35;0.50;;;;;;;17.27;57.47;101044.25;5044992;28;20039;-80
2022/08/06 08:07:41;;;;;;;1.85;0.60;;;;;;;17.44;58.07;101049.47;5045627;28;20110;-78
2022/08/06 08:10:07;;;;;;;6.95;1.42;;;;;;;17.38;58.36;101048.66;5045313;28;20040;-80
2022/08/06 08:12:37;;;;;;;2.17;0.65;;;;;;;17.34;57.72;101042.06;5045812;28;20140;-79
2022/08/06 08:15:06;;;;;;;2.15;0.68;;;;;;;17.43;58.98;101049.75;5045343;28;20056;-79
2022/08/06 08:17:32;;;;;;;3.78;1.02;;;;;;;17.40;58.49;101051.13;5044528;28;20111;-80
2022/08/06 08:20:03;;;;;;;4.18;1.05;;;;;;;17.25;57.67;101057.47;5045134;28;20041;-84
2022/08/06 08:22:28;;;;;;;1.95;0.40;;;;;;;17.41;57.88;101046.44;5050629;28;20044;-84
2022/08/06 08:24:54;;;;;;;4.15;0.60;;;;;;;17.40;57.22;101045.59;5050833;28;20032;-83
2022/08/06 08:27:21;;;;;;;4.30;0.63;;;;;;;17.45;55.11;101039.28;5050478;28;20028;-84
2022/08/06 08:29:46;;;;;;;0.45;0.30;;;;;;;17.50;54.23;101055.78;5049588;28;20231;-84
2022/08/06 08:32:11;;;;;;;1.23;0.40;;;;;;;17.63;55.05;101048.84;5050570;28;20131;-83
2022/08/06 08:34:37;;;;;;;2.20;0.77;;;;;;;17.56;54.78;101054.66;5050749;28;20032;-80
2022/08/06 08:37:03;;;;;;;1.60;0.60;;;;;;;17.70;55.35;101045.78;5049446;28;20029;-80
2022/08/06 08:39:28;;;;;;;1.88;1.23;;;;;;;17.79;55.17;101046.03;5047870;28;20037;-79
2022/08/06 08:42:09;;;;;;;2.40;0.87;;;;;;;17.68;54.81;101048.81;5048825;28;20033;-79
2022/08/06 08:44:35;;;;;;;1.08;0.55;;;;;;;17.80;54.39;101047.66;5048191;28;20749;-85
2022/08/06 08:47:01;;;;;;;3.38;0.63;;;;;;;17.98;53.77;101057.22;5050840;28;20040;-85
2022/08/06 08:49:36;;;;;;;3.97;0.77;;;;;;;17.89;52.85;101048.75;5043290;28;20025;-79
2022/08/06 08:52:06;;;;;;;0.98;0.55;;;;;;;18.01;52.63;101045.66;5028957;28;20075;-79
2022/08/06 08:54:34;;;;;;;13.57;1.05;;;;;;;18.08;53.36;101035.09;5042504;28;20464;-84
2022/08/06 08:57:01;;;;;;;2.90;0.73;;;;;;;18.27;54.13;101040.00;5050086;28;20040;-84
2022/08/06 08:59:27;;;;;;;2.33;0.55;;;;;;;18.35;52.67;101038.56;5049909;28;20040;-86
2022/08/06 09:01:52;;;;;;;3.22;0.70;;;;;;;18.48;53.01;101039.03;5050445;28;20025;-85
2022/08/06 09:04:18;;;;;;;2.67;0.40;;;;;;;18.46;53.72;101042.09;5050990;28;20032;-80
2022/08/06 09:06:44;;;;;;;4.40;0.55;;;;;;;18.48;51.99;101045.38;5048497;28;20400;-80
2022/08/06 09:09:10;;;;;;;2.63;0.93;;;;;;;18.54;51.24;101044.22;5047326;28;20036;-81
2022/08/06 09:11:36;;;;;;;2.40;0.80;;;;;;;18.74;50.92;101053.47;5048205;28;20062;-79
2022/08/06 09:14:06;;;;;;;1.63;0.45;;;;;;;18.62;52.65;101051.06;5048001;28;20514;-80
2022/08/06 09:16:34;;;;;;;2.70;0.95;;;;;;;18.87;49.53;101045.63;5047997;28;20040;-81
2022/08/06 09:19:00;;;;;;;6.78;1.35;;;;;;;18.89;50.91;101043.41;5046809;28;20041;-80
2022/08/06 09:21:26;;;;;;;2.10;0.50;;;;;;;19.06;49.75;101044.91;5048236;28;20480;-79
2022/08/06 09:23:51;;;;;;;1.42;0.40;;;;;;;19.15;50.09;101050.63;5047683;28;20039;-80
2022/08/06 09:26:17;;;;;;;1.40;0.40;;;;;;;19.33;50.17;101046.31;5047865;28;20101;-79
2022/08/06 09:28:43;;;;;;;6.32;0.98;;;;;;;19.23;49.42;101048.06;5046712;28;20036;-80
2022/08/06 09:31:14;;;;;;;1.27;0.52;;;;;;;19.33;49.82;101046.31;5029291;28;20254;-85
2022/08/06 09:33:59;;;;;;;0.65;0.35;;;;;;;19.13;46.93;101046.22;5029374;28;20622;-86
2022/08/06 09:36:25;;;;;;;0.77;0.30;;;;;;;19.11;48.00;101051.19;5029701;28;20396;-86
2022/08/06 09:38:58;;;;;;;0.90;0.50;;;;;;;19.32;47.88;101050.19;5033468;28;20033;-86
2022/08/06 09:41:26;;;;;;;0.95;0.60;;;;;;;19.55;49.08;101048.53;5031824;28;20068;-85
2022/08/06 09:43:54;;;;;;;1.13;0.65;;;;;;;19.61;48.28;101052.06;5049727;28;20047;-85
2022/08/06 09:46:36;;;;;;;2.35;0.90;;;;;;;19.54;47.75;101049.66;5047868;28;20033;-81
2022/08/06 09:49:03;;;;;;;2.28;0.80;;;;;;;19.57;48.50;101051.00;5046031;28;20044;-80
2022/08/06 09:51:28;;;;;;;2.35;0.70;;;;;;;19.72;47.79;101047.25;5047802;28;20045;-80
2022/08/06 09:53:59;;;;;;;2.17;0.55;;;;;;;19.62;46.61;101053.72;5047607;28;20043;-80
2022/08/06 09:56:28;;;;;;;3.00;0.50;;;;;;;19.39;47.89;101041.53;5049412;28;20540;-86
2022/08/06 09:59:02;;;;;;;1.30;0.47;;;;;;;19.44;46.82;101047.84;5048587;28;20050;-86
2022/08/06 10:01:28;;;;;;;0.80;0.40;;;;;;;19.63;47.15;101049.81;5048703;28;20025;-86
2022/08/06 10:03:56;;;;;;;2.90;0.80;;;;;;;19.70;46.52;101055.00;5049268;28;20476;-86
2022/08/06 10:06:22;;;;;;;2.25;0.55;;;;;;;19.54;45.80;101057.97;5047832;28;20115;-79
2022/08/06 10:08:49;;;;;;;1.17;0.40;;;;;;;19.59;47.05;101057.91;5046502;28;20583;-79
2022/08/06 10:11:31;;;;;;;1.02;0.40;;;;;;;19.36;47.19;101065.09;5047077;28;20033;-80
2022/08/06 10:13:56;;;;;;;2.15;0.60;;;;;;;19.72;46.64;101063.84;5047040;28;20535;-79
2022/08/06 10:16:29;;;;;;;1.13;0.50;;;;;;;19.90;46.53;101064.16;5048706;28;20064;-84
2022/08/06 10:18:59;;;;;;;1.00;0.32;;;;;;;19.98;45.05;101059.91;5047034;28;20033;-84
2022/08/06 10:21:33;;;;;;;5.38;0.55;;;;;;;20.24;43.09;101059.59;5046953;28;20102;-79
2022/08/06 10:24:02;;;;;;;0.85;0.20;;;;;;;20.28;44.34;101060.63;5046695;28;20047;-79
2022/08/06 10:26:30;;;;;;;0.60;0.30;;;;;;;20.40;44.00;101055.44;5046383;28;20479;-78
2022/08/06 10:29:03;;;;;;;2.33;0.52;;;;;;;20.41;43.66;101051.56;5045527;28;20032;-79
2022/08/06 10:31:29;;;;;;;1.95;1.00;;;;;;;20.47;43.56;101041.25;5046597;28;20045;-79
2022/08/06 10:34:00;;;;;;;2.80;0.65;;;;;;;20.60;42.93;101055.44;5046547;28;20095;-79
2022/08/06 10:36:34;;;;;;;3.30;0.75;;;;;;;20.69;43.59;101056.38;5047067;28;20044;-79
2022/08/06 10:38:59;;;;;;;1.45;0.38;;;;;;;20.77;42.87;101057.66;5045309;28;20079;-79
2022/08/06 10:41:26;;;;;;;1.15;0.45;;;;;;;20.85;43.80;101053.34;5048038;28;20033;-83
2022/08/06 10:43:54;;;;;;;4.38;0.30;;;;;;;20.75;43.52;101055.19;5046182;28;20068;-84
2022/08/06 10:46:19;;;;;;;3.95;0.68;;;;;;;20.94;43.28;101050.72;5046878;28;20513;-84
2022/08/06 10:48:48;;;;;;;1.20;0.40;;;;;;;21.01;42.35;101045.66;5045300;28;20120;-84
2022/08/06 10:51:15;;;;;;;0.32;0.30;;;;;;;21.16;42.02;101049.25;5046641;28;20444;-79
2022/08/06 10:53:43;;;;;;;1.52;0.30;;;;;;;21.29;41.40;101045.69;5046120;28;20029;-79
2022/08/06 10:56:14;;;;;;;1.27;0.30;;;;;;;20.99;41.02;101036.81;5048082;28;20053;-85
2022/08/06 10:58:41;;;;;;;0.80;0.30;;;;;;;21.22;41.51;101048.84;5047378;28;20051;-84
2022/08/06 11:01:21;;;;;;;1.02;0.30;;;;;;;21.38;41.31;101042.19;5046652;28;20106;-80
2022/08/06 11:04:08;;;;;;;1.13;0.20;;;;;;;21.46;41.69;101044.22;5046863;28;20475;-80
2022/08/06 11:06:42;;;;;;;1.00;0.52;;;;;;;21.61;40.53;101040.31;5046373;28;20029;-79
2022/08/06 11:09:26;;;;;;;2.63;0.35;;;;;;;21.60;39.45;101037.88;5045209;28;20064;-81
2022/08/06 11:12:16;;;;;;;;;;;;;;;21.76;39.24;101039.19;5046083;28;20054;-79
2022/08/06 11:14:44;;;;;;;2.40;0.30;;;;;;;21.92;39.87;101027.78;5043806;28;19927;-79
2022/08/06 11:17:10;;;;;;;1.80;0.70;;;;;;;22.02;39.68;101026.72;5034986;28;20064;-79
2022/08/06 11:19:47;;;;;;;1.83;0.22;;;;;;;22.22;39.69;101024.59;5044768;28;20040;-81
2022/08/06 11:22:31;;;;;;;0.80;0.40;;;;;;;21.98;39.29;101028.47;5024890;28;20060;-81
2022/08/06 11:24:57;;;;;;;1.42;0.40;;;;;;;21.54;39.52;101031.63;5026100;28;20067;-79
2022/08/06 11:27:51;;;;;;;1.90;0.30;;;;;;;21.40;39.63;101034.38;5025668;28;20037;-79
2022/08/06 11:30:18;;;;;;;0.10;0.10;;;;;;;21.30;40.45;101024.28;5043405;28;20055;-84
2022/08/06 11:32:47;;;;;;;1.15;0.40;;;;;;;21.51;39.86;101030.28;5046839;28;20043;-84
2022/08/06 11:35:34;;;;;;;2.08;0.40;;;;;;;21.86;38.59;101024.31;5046987;28;20033;-84
2022/08/06 11:38:02;;;;;;;0.95;0.20;;;;;;;21.61;38.45;101022.84;5047291;28;20025;-84
2022/08/06 11:40:27;;;;;;;0.43;0.30;;;;;;;21.51;38.92;101021.13;5045789;28;20072;-79